메인 페이지
METAR-TAF:

METAR-TAF

공항 :

바르나, 불가리아

위도: 43-12N, 경도: 027-55E, 고도: 41m

현재 날씨관측

예보는 35분 전, 14:00시(UTC)에 발표되었습니다.
동남동7kt
온도 13°C
습도 77%
기압 1002 hPa
시정 10km 이상
고도 4400ft 상공 구름 조금

METAR: LBWN 141400Z 12007KT 9999 FEW044 13/09 Q1002 NOSIG

시각: 16:35 (14:35 UTC)

예보

예보는 3 시간 35분 전, 11:00시(UTC)에 발표되었습니다.
예보 대상 시간: 14일 12시부터 15일 12시까지 (UTC)
동남동14kt
시정 10km 이상
고도 3000ft 상공 구름 보통
전환 중
14일 18시부터 14일 20시까지 (UTC)
여러 방향의 바람 4kt
고도 2000ft 상공 구름 보통
고도 4000ft 상공 구름 많음
전환 중
14일 22시부터 14일 24시까지 (UTC)
서북서14kt
고도 2000ft 상공 구름 많음
고도 4000ft 상공 흐림
일시적
15일 00시부터 15일 06시까지 (UTC)
시정: 5000m
고도 1500ft 상공 구름 많음
고도 2500ft 상공 흐림

TAF: LBWN 141100Z 1412/1512 11014KT 9999 SCT030 BECMG 1418/1420 VRB04KT SCT020 BKN040 BECMG 1422/1424 30014KT BKN020 OVC040 TEMPO 1500/1506 5000 RA BKN015 OVC025

4,000개 이상의 공항 관측 자료 및 예보 (METAR 및 TAF 보고).

지도상에서 검색 가능한 기상관측소가 노란 점과 빨간 점으로 표시되어 있습니다.

기상관측소 명을 보려면 표시 위로 마우스를 이동하세요.

날씨 관측과 예보를 보려면 클릭하세요.

지도 변경 : 확대하려면 엑스 표시가 있는 녹색 버튼, 축소하려면 빼기 표시가 있는 녹색 버튼, 다음 페이지의 지도를 보려면 녹색 화살표를 클릭하세요.


METAR-TAF: